createdAt,value
2022-09-12T00:01:08.792Z,8.46
2022-09-12T00:11:15.053Z,8.33
2022-09-12T00:21:21.964Z,8.24
2022-09-12T00:31:29.158Z,8.11
2022-09-12T00:41:37.122Z,8.07
2022-09-12T00:51:47.454Z,8.04
2022-09-12T01:01:54.407Z,7.97
2022-09-12T01:12:03.022Z,7.90
2022-09-12T01:22:21.709Z,7.77
2022-09-12T01:32:38.825Z,7.68
2022-09-12T01:42:52.953Z,7.57
2022-09-12T01:53:02.157Z,7.54
2022-09-12T02:03:13.637Z,7.54
2022-09-12T02:13:24.820Z,7.46
2022-09-12T02:23:32.680Z,7.41
2022-09-12T02:33:44.863Z,7.33
2022-09-12T02:43:51.570Z,7.26
2022-09-12T02:53:58.106Z,7.26
2022-09-12T03:04:22.632Z,7.44
2022-09-12T03:14:46.751Z,7.42
2022-09-12T03:25:02.774Z,7.33
2022-09-12T03:35:09.201Z,7.27
2022-09-12T03:45:16.590Z,7.26
2022-09-12T03:55:22.566Z,7.28
2022-09-12T04:05:28.407Z,7.46
2022-09-12T04:15:34.161Z,7.68
2022-09-12T04:25:39.780Z,7.88
2022-09-12T04:35:45.524Z,8.02
2022-09-12T04:45:52.031Z,8.16
2022-09-12T04:56:02.403Z,8.39
2022-09-12T05:06:11.155Z,8.65
2022-09-12T05:16:18.789Z,8.94
2022-09-12T05:26:25.306Z,9.55
2022-09-12T05:36:31.778Z,11.03
2022-09-12T05:46:41.603Z,13.13
2022-09-12T05:56:48.213Z,15.91
2022-09-12T06:06:53.954Z,17.07
2022-09-12T06:16:59.790Z,18.35
2022-09-12T06:27:05.639Z,20.28
2022-09-12T06:37:11.313Z,23.08
2022-09-12T06:47:16.979Z,25.64
2022-09-12T06:57:22.594Z,27.13
2022-09-12T07:07:28.369Z,25.87
2022-09-12T07:17:33.917Z,28.33
2022-09-12T07:27:39.645Z,27.66
2022-09-12T07:37:45.377Z,28.12
2022-09-12T07:47:54.149Z,30.55
2022-09-12T07:57:59.809Z,33.03
2022-09-12T08:08:05.768Z,33.07
2022-09-12T08:18:11.534Z,30.73
2022-09-12T08:28:17.170Z,28.52
2022-09-12T08:38:23.813Z,27.36
2022-09-12T08:48:29.588Z,24.08
2022-09-12T08:58:40.575Z,21.11
2022-09-12T09:09:04.125Z,20.06
2022-09-12T09:19:17.440Z,19.89
2022-09-12T09:29:26.144Z,19.54
2022-09-12T09:39:47.034Z,19.00
2022-09-12T09:49:52.825Z,18.59
2022-09-12T09:59:58.527Z,18.08
2022-09-12T10:10:17.006Z,17.92
2022-09-12T10:20:39.085Z,17.87
2022-09-12T10:30:54.820Z,17.54
2022-09-12T10:41:02.772Z,17.56
2022-09-12T10:51:16.022Z,18.17
2022-09-12T11:01:38.040Z,18.32
2022-09-12T11:11:54.872Z,18.09
2022-09-12T11:22:20.117Z,18.51
2022-09-12T11:32:55.355Z,18.44
2022-09-12T11:43:06.751Z,17.65
2022-09-12T11:53:20.239Z,17.84
2022-09-12T12:03:34.120Z,18.07
2022-09-12T12:13:46.052Z,18.08
2022-09-12T12:24:13.312Z,17.79
2022-09-12T12:34:30.577Z,17.91
2022-09-12T12:44:52.616Z,17.59
2022-09-12T12:55:01.282Z,17.50
2022-09-12T13:05:19.043Z,18.02
2022-09-12T13:15:51.437Z,18.25
2022-09-12T13:25:58.433Z,18.25
2022-09-12T13:36:28.225Z,17.84
2022-09-12T13:46:35.892Z,17.77
2022-09-12T13:56:51.019Z,17.66
2022-09-12T14:06:57.057Z,17.48
2022-09-12T14:17:16.357Z,17.35
2022-09-12T14:27:26.152Z,17.45
2022-09-12T14:37:32.145Z,17.55
2022-09-12T14:47:41.864Z,17.52
2022-09-12T14:57:48.008Z,17.51
2022-09-12T15:08:02.386Z,17.23
2022-09-12T15:18:08.439Z,17.00
2022-09-12T15:28:20.167Z,16.86
2022-09-12T15:38:26.775Z,18.37
2022-09-12T15:48:32.530Z,17.17
2022-09-12T15:58:49.824Z,16.51
2022-09-12T16:09:00.602Z,16.16
2022-09-12T16:19:06.603Z,15.87
2022-09-12T16:29:14.484Z,15.60
2022-09-12T16:39:20.561Z,15.28
2022-09-12T16:49:26.277Z,14.95
2022-09-12T16:59:32.035Z,14.54
2022-09-12T17:09:37.693Z,14.05
2022-09-12T17:19:43.673Z,13.51
2022-09-12T17:29:49.899Z,12.98
2022-09-12T17:39:55.796Z,12.46
2022-09-12T17:50:30.034Z,11.93
2022-09-12T18:00:47.898Z,11.45
2022-09-12T18:10:54.027Z,11.08
2022-09-12T18:20:59.801Z,10.72
2022-09-12T18:31:10.442Z,10.39
2022-09-12T18:41:18.589Z,10.14
2022-09-12T18:51:26.898Z,9.96
2022-09-12T19:01:34.180Z,9.74
2022-09-12T19:11:48.691Z,9.54
2022-09-12T19:21:54.383Z,9.30
2022-09-12T19:32:00.043Z,9.14
2022-09-12T19:42:05.949Z,8.93
2022-09-12T19:52:14.435Z,8.75
2022-09-12T20:02:25.721Z,8.61
2022-09-12T20:12:31.774Z,8.45
2022-09-12T20:22:40.144Z,8.32
2022-09-12T20:32:46.109Z,8.19
2022-09-12T20:42:52.032Z,8.06
2022-09-12T20:52:57.728Z,7.95
2022-09-12T21:03:04.534Z,7.81
2022-09-12T21:13:11.245Z,7.67
2022-09-12T21:23:16.845Z,7.56
2022-09-12T21:33:23.944Z,7.49
2022-09-12T21:43:29.610Z,7.43
2022-09-12T21:53:35.412Z,7.30
2022-09-12T22:03:42.571Z,7.20
2022-09-12T22:13:48.267Z,7.11
2022-09-12T22:24:11.958Z,7.03
2022-09-12T22:34:18.066Z,6.97
2022-09-12T22:44:23.734Z,6.92
2022-09-12T22:54:30.133Z,6.86
2022-09-12T23:04:35.727Z,6.82
2022-09-12T23:14:41.369Z,6.96
2022-09-12T23:24:47.159Z,7.15
2022-09-12T23:34:53.005Z,7.25
2022-09-12T23:44:58.607Z,7.20
2022-09-12T23:55:04.396Z,7.09
